sensor_id;sensor_type;location;lat;lon;timestamp;temperature;humidity
3051;DHT22;1535;51.098;6.414;2023-03-08T00:00:28;1.40;99.90
3051;DHT22;1535;51.098;6.414;2023-03-08T00:02:54;1.40;99.90
3051;DHT22;1535;51.098;6.414;2023-03-08T00:05:22;1.40;99.90
3051;DHT22;1535;51.098;6.414;2023-03-08T00:07:53;1.50;99.90
3051;DHT22;1535;51.098;6.414;2023-03-08T00:10:20;1.50;99.90
3051;DHT22;1535;51.098;6.414;2023-03-08T00:12:47;1.50;99.90
3051;DHT22;1535;51.098;6.414;2023-03-08T00:15:14;1.50;99.90
3051;DHT22;1535;51.098;6.414;2023-03-08T00:17:42;1.50;99.90
3051;DHT22;1535;51.098;6.414;2023-03-08T00:20:10;1.50;99.90
3051;DHT22;1535;51.098;6.414;2023-03-08T00:22:39;1.50;99.90
3051;DHT22;1535;51.098;6.414;2023-03-08T00:25:09;1.40;99.90
3051;DHT22;1535;51.098;6.414;2023-03-08T00:27:36;1.40;99.90
3051;DHT22;1535;51.098;6.414;2023-03-08T00:30:04;1.50;99.90
3051;DHT22;1535;51.098;6.414;2023-03-08T00:32:31;1.40;99.90
3051;DHT22;1535;51.098;6.414;2023-03-08T00:34:58;1.40;99.90
3051;DHT22;1535;51.098;6.414;2023-03-08T00:37:25;1.40;99.90
3051;DHT22;1535;51.098;6.414;2023-03-08T00:39:53;1.40;99.90
3051;DHT22;1535;51.098;6.414;2023-03-08T00:42:22;1.40;99.90
3051;DHT22;1535;51.098;6.414;2023-03-08T00:44:50;1.40;99.90
3051;DHT22;1535;51.098;6.414;2023-03-08T00:47:16;1.40;99.90
3051;DHT22;1535;51.098;6.414;2023-03-08T00:49:43;1.40;99.90
3051;DHT22;1535;51.098;6.414;2023-03-08T00:52:10;1.30;99.90
3051;DHT22;1535;51.098;6.414;2023-03-08T00:54:38;1.40;99.90
3051;DHT22;1535;51.098;6.414;2023-03-08T00:57:06;1.40;99.90
3051;DHT22;1535;51.098;6.414;2023-03-08T00:59:34;1.40;99.90
3051;DHT22;1535;51.098;6.414;2023-03-08T01:02:01;1.40;99.90
3051;DHT22;1535;51.098;6.414;2023-03-08T01:04:28;1.40;99.90
3051;DHT22;1535;51.098;6.414;2023-03-08T01:06:54;1.40;99.90
3051;DHT22;1535;51.098;6.414;2023-03-08T01:09:22;1.40;99.90
3051;DHT22;1535;51.098;6.414;2023-03-08T01:11:48;1.40;99.90
3051;DHT22;1535;51.098;6.414;2023-03-08T01:14:15;1.40;99.90
3051;DHT22;1535;51.098;6.414;2023-03-08T01:16:43;1.40;99.90
3051;DHT22;1535;51.098;6.414;2023-03-08T01:19:11;1.40;99.90
3051;DHT22;1535;51.098;6.414;2023-03-08T01:21:38;1.40;99.90
3051;DHT22;1535;51.098;6.414;2023-03-08T01:24:05;1.50;99.90
3051;DHT22;1535;51.098;6.414;2023-03-08T01:26:32;1.50;99.90
3051;DHT22;1535;51.098;6.414;2023-03-08T01:28:59;1.50;99.90
3051;DHT22;1535;51.098;6.414;2023-03-08T01:31:28;1.50;99.90
3051;DHT22;1535;51.098;6.414;2023-03-08T01:33:56;1.50;99.90
3051;DHT22;1535;51.098;6.414;2023-03-08T01:36:25;1.50;99.90
3051;DHT22;1535;51.098;6.414;2023-03-08T01:38:52;1.40;99.90
3051;DHT22;1535;51.098;6.414;2023-03-08T01:41:21;1.40;99.90
3051;DHT22;1535;51.098;6.414;2023-03-08T01:43:49;1.40;99.90
3051;DHT22;1535;51.098;6.414;2023-03-08T01:46:23;1.40;99.90
3051;DHT22;1535;51.098;6.414;2023-03-08T01:48:53;1.40;99.90
3051;DHT22;1535;51.098;6.414;2023-03-08T01:51:27;1.30;99.90
3051;DHT22;1535;51.098;6.414;2023-03-08T01:53:56;1.30;99.90
3051;DHT22;1535;51.098;6.414;2023-03-08T01:56:24;1.30;99.90
3051;DHT22;1535;51.098;6.414;2023-03-08T01:58:52;1.30;99.90
3051;DHT22;1535;51.098;6.414;2023-03-08T02:01:20;1.30;99.90
3051;DHT22;1535;51.098;6.414;2023-03-08T02:03:47;1.30;99.90
3051;DHT22;1535;51.098;6.414;2023-03-08T02:06:16;1.40;99.90
3051;DHT22;1535;51.098;6.414;2023-03-08T02:08:45;1.40;99.90
3051;DHT22;1535;51.098;6.414;2023-03-08T02:11:12;1.30;99.90
3051;DHT22;1535;51.098;6.414;2023-03-08T02:13:41;1.30;99.90
3051;DHT22;1535;51.098;6.414;2023-03-08T02:16:11;1.30;99.90
3051;DHT22;1535;51.098;6.414;2023-03-08T02:18:51;1.30;99.90
3051;DHT22;1535;51.098;6.414;2023-03-08T02:21:19;1.30;99.90
3051;DHT22;1535;51.098;6.414;2023-03-08T02:23:47;1.30;99.90
3051;DHT22;1535;51.098;6.414;2023-03-08T02:26:14;1.30;99.90
3051;DHT22;1535;51.098;6.414;2023-03-08T02:28:43;1.30;99.90
3051;DHT22;1535;51.098;6.414;2023-03-08T02:31:12;1.30;99.90
3051;DHT22;1535;51.098;6.414;2023-03-08T02:33:39;1.30;99.90
3051;DHT22;1535;51.098;6.414;2023-03-08T02:36:07;1.20;99.90
3051;DHT22;1535;51.098;6.414;2023-03-08T02:38:34;1.30;99.90
3051;DHT22;1535;51.098;6.414;2023-03-08T02:41:03;1.20;99.90
3051;DHT22;1535;51.098;6.414;2023-03-08T02:43:31;1.20;99.90
3051;DHT22;1535;51.098;6.414;2023-03-08T02:45:57;1.30;99.90
3051;DHT22;1535;51.098;6.414;2023-03-08T02:48:25;1.30;99.90
3051;DHT22;1535;51.098;6.414;2023-03-08T02:50:52;1.20;99.90
3051;DHT22;1535;51.098;6.414;2023-03-08T02:53:19;1.10;99.90
3051;DHT22;1535;51.098;6.414;2023-03-08T02:55:45;1.20;99.90
3051;DHT22;1535;51.098;6.414;2023-03-08T02:58:14;1.20;99.90
3051;DHT22;1535;51.098;6.414;2023-03-08T03:00:41;1.20;99.90
3051;DHT22;1535;51.098;6.414;2023-03-08T03:03:08;1.20;99.90
3051;DHT22;1535;51.098;6.414;2023-03-08T03:05:40;1.20;99.90
3051;DHT22;1535;51.098;6.414;2023-03-08T03:08:08;1.20;99.90
3051;DHT22;1535;51.098;6.414;2023-03-08T03:10:36;1.10;99.90
3051;DHT22;1535;51.098;6.414;2023-03-08T03:13:03;1.10;99.90
3051;DHT22;1535;51.098;6.414;2023-03-08T03:15:32;1.00;99.90
3051;DHT22;1535;51.098;6.414;2023-03-08T03:17:59;1.00;99.90
3051;DHT22;1535;51.098;6.414;2023-03-08T03:20:26;1.00;99.90
3051;DHT22;1535;51.098;6.414;2023-03-08T03:22:53;0.90;99.90
3051;DHT22;1535;51.098;6.414;2023-03-08T03:25:21;1.00;99.90
3051;DHT22;1535;51.098;6.414;2023-03-08T03:27:47;1.10;99.90
3051;DHT22;1535;51.098;6.414;2023-03-08T03:30:14;1.10;99.90
3051;DHT22;1535;51.098;6.414;2023-03-08T03:32:42;1.00;99.90
3051;DHT22;1535;51.098;6.414;2023-03-08T03:35:09;1.10;99.90
3051;DHT22;1535;51.098;6.414;2023-03-08T03:37:36;1.10;99.90
3051;DHT22;1535;51.098;6.414;2023-03-08T03:40:04;1.10;99.90
3051;DHT22;1535;51.098;6.414;2023-03-08T03:42:31;1.00;99.90
3051;DHT22;1535;51.098;6.414;2023-03-08T03:44:58;1.00;99.90
3051;DHT22;1535;51.098;6.414;2023-03-08T03:47:25;1.00;99.90
3051;DHT22;1535;51.098;6.414;2023-03-08T03:49:53;1.00;99.90
3051;DHT22;1535;51.098;6.414;2023-03-08T03:52:20;1.00;99.90
3051;DHT22;1535;51.098;6.414;2023-03-08T03:54:47;1.00;99.90
3051;DHT22;1535;51.098;6.414;2023-03-08T03:57:13;1.00;99.90
3051;DHT22;1535;51.098;6.414;2023-03-08T03:59:40;1.00;99.90
3051;DHT22;1535;51.098;6.414;2023-03-08T04:02:07;0.90;99.90
3051;DHT22;1535;51.098;6.414;2023-03-08T04:04:34;1.00;99.90
3051;DHT22;1535;51.098;6.414;2023-03-08T04:07:02;1.00;99.90
3051;DHT22;1535;51.098;6.414;2023-03-08T04:09:29;1.00;99.90
3051;DHT22;1535;51.098;6.414;2023-03-08T04:11:56;1.00;99.90
3051;DHT22;1535;51.098;6.414;2023-03-08T04:14:26;1.00;99.90
3051;DHT22;1535;51.098;6.414;2023-03-08T04:16:53;1.10;99.90
3051;DHT22;1535;51.098;6.414;2023-03-08T04:19:20;1.00;99.90
3051;DHT22;1535;51.098;6.414;2023-03-08T04:21:47;0.90;99.90
3051;DHT22;1535;51.098;6.414;2023-03-08T04:24:15;1.00;99.90
3051;DHT22;1535;51.098;6.414;2023-03-08T04:26:42;1.00;99.90
3051;DHT22;1535;51.098;6.414;2023-03-08T04:29:09;1.00;99.90
3051;DHT22;1535;51.098;6.414;2023-03-08T04:31:36;1.00;99.90
3051;DHT22;1535;51.098;6.414;2023-03-08T04:34:03;1.00;99.90
3051;DHT22;1535;51.098;6.414;2023-03-08T04:36:30;1.00;99.90
3051;DHT22;1535;51.098;6.414;2023-03-08T04:38:58;0.90;99.90
3051;DHT22;1535;51.098;6.414;2023-03-08T04:41:26;1.00;99.90
3051;DHT22;1535;51.098;6.414;2023-03-08T04:43:54;1.10;99.90
3051;DHT22;1535;51.098;6.414;2023-03-08T04:46:24;1.10;99.90
3051;DHT22;1535;51.098;6.414;2023-03-08T04:48:51;1.20;99.90
3051;DHT22;1535;51.098;6.414;2023-03-08T04:51:20;1.20;99.90
3051;DHT22;1535;51.098;6.414;2023-03-08T04:53:48;1.20;99.90
3051;DHT22;1535;51.098;6.414;2023-03-08T04:56:15;1.20;99.90
3051;DHT22;1535;51.098;6.414;2023-03-08T04:58:43;1.20;99.90
3051;DHT22;1535;51.098;6.414;2023-03-08T05:01:12;1.20;99.90
3051;DHT22;1535;51.098;6.414;2023-03-08T05:03:40;1.20;99.90
3051;DHT22;1535;51.098;6.414;2023-03-08T05:06:07;1.20;99.90
3051;DHT22;1535;51.098;6.414;2023-03-08T05:08:34;1.20;99.90
3051;DHT22;1535;51.098;6.414;2023-03-08T05:11:02;1.20;99.90
3051;DHT22;1535;51.098;6.414;2023-03-08T05:13:31;1.20;99.90
3051;DHT22;1535;51.098;6.414;2023-03-08T05:16:00;1.20;99.90
3051;DHT22;1535;51.098;6.414;2023-03-08T05:18:27;1.20;99.90
3051;DHT22;1535;51.098;6.414;2023-03-08T05:20:55;1.20;99.90
3051;DHT22;1535;51.098;6.414;2023-03-08T05:23:23;1.30;99.90
3051;DHT22;1535;51.098;6.414;2023-03-08T05:25:53;1.20;99.90
3051;DHT22;1535;51.098;6.414;2023-03-08T05:28:21;1.20;99.90
3051;DHT22;1535;51.098;6.414;2023-03-08T05:30:47;1.20;99.90
3051;DHT22;1535;51.098;6.414;2023-03-08T05:33:16;1.20;99.90
3051;DHT22;1535;51.098;6.414;2023-03-08T05:35:51;1.20;99.90
3051;DHT22;1535;51.098;6.414;2023-03-08T05:38:18;1.20;99.90
3051;DHT22;1535;51.098;6.414;2023-03-08T05:40:45;1.20;99.90
3051;DHT22;1535;51.098;6.414;2023-03-08T05:43:12;1.10;99.90
3051;DHT22;1535;51.098;6.414;2023-03-08T05:45:39;1.10;99.90
3051;DHT22;1535;51.098;6.414;2023-03-08T05:48:06;1.10;99.90
3051;DHT22;1535;51.098;6.414;2023-03-08T05:50:36;1.20;99.90
3051;DHT22;1535;51.098;6.414;2023-03-08T05:53:03;1.10;99.90
3051;DHT22;1535;51.098;6.414;2023-03-08T05:55:30;1.10;99.90
3051;DHT22;1535;51.098;6.414;2023-03-08T05:57:57;1.10;99.90
3051;DHT22;1535;51.098;6.414;2023-03-08T06:00:24;1.10;99.90
3051;DHT22;1535;51.098;6.414;2023-03-08T06:02:51;1.10;99.90
3051;DHT22;1535;51.098;6.414;2023-03-08T06:05:18;1.10;99.90
3051;DHT22;1535;51.098;6.414;2023-03-08T06:07:46;1.20;99.90
3051;DHT22;1535;51.098;6.414;2023-03-08T06:10:13;1.20;99.90
3051;DHT22;1535;51.098;6.414;2023-03-08T06:12:40;1.10;99.90
3051;DHT22;1535;51.098;6.414;2023-03-08T06:15:07;1.10;99.90
3051;DHT22;1535;51.098;6.414;2023-03-08T06:17:34;1.10;99.90
3051;DHT22;1535;51.098;6.414;2023-03-08T06:20:01;1.00;99.90
3051;DHT22;1535;51.098;6.414;2023-03-08T06:22:27;1.00;99.90
3051;DHT22;1535;51.098;6.414;2023-03-08T06:24:55;1.10;99.90
3051;DHT22;1535;51.098;6.414;2023-03-08T06:27:22;1.10;99.90
3051;DHT22;1535;51.098;6.414;2023-03-08T06:29:50;1.10;99.90
3051;DHT22;1535;51.098;6.414;2023-03-08T06:32:18;1.00;99.90
3051;DHT22;1535;51.098;6.414;2023-03-08T06:34:44;1.00;99.90
3051;DHT22;1535;51.098;6.414;2023-03-08T06:37:13;1.00;99.90
3051;DHT22;1535;51.098;6.414;2023-03-08T06:39:40;1.00;99.90
3051;DHT22;1535;51.098;6.414;2023-03-08T06:42:08;1.10;99.90
3051;DHT22;1535;51.098;6.414;2023-03-08T06:44:36;1.00;99.90
3051;DHT22;1535;51.098;6.414;2023-03-08T06:47:03;1.10;99.90
3051;DHT22;1535;51.098;6.414;2023-03-08T06:49:30;1.00;99.90
3051;DHT22;1535;51.098;6.414;2023-03-08T06:51:57;1.00;99.90
3051;DHT22;1535;51.098;6.414;2023-03-08T06:54:24;1.10;99.90
3051;DHT22;1535;51.098;6.414;2023-03-08T06:56:51;1.00;99.90
3051;DHT22;1535;51.098;6.414;2023-03-08T06:59:20;1.00;99.90
3051;DHT22;1535;51.098;6.414;2023-03-08T07:01:46;1.00;99.90
3051;DHT22;1535;51.098;6.414;2023-03-08T07:04:13;1.20;99.90
3051;DHT22;1535;51.098;6.414;2023-03-08T07:06:42;1.20;99.90
3051;DHT22;1535;51.098;6.414;2023-03-08T07:09:09;1.20;99.90
3051;DHT22;1535;51.098;6.414;2023-03-08T07:11:37;1.20;99.90
3051;DHT22;1535;51.098;6.414;2023-03-08T07:14:04;1.20;99.90
3051;DHT22;1535;51.098;6.414;2023-03-08T07:16:32;1.20;99.90
3051;DHT22;1535;51.098;6.414;2023-03-08T07:19:00;1.10;99.90
3051;DHT22;1535;51.098;6.414;2023-03-08T07:21:27;1.10;99.90
3051;DHT22;1535;51.098;6.414;2023-03-08T07:23:54;1.20;99.90
3051;DHT22;1535;51.098;6.414;2023-03-08T07:26:21;1.10;99.90
3051;DHT22;1535;51.098;6.414;2023-03-08T07:28:48;1.10;99.90
3051;DHT22;1535;51.098;6.414;2023-03-08T07:31:16;1.10;99.90
3051;DHT22;1535;51.098;6.414;2023-03-08T07:33:44;1.10;99.90
3051;DHT22;1535;51.098;6.414;2023-03-08T07:36:11;1.00;99.90
3051;DHT22;1535;51.098;6.414;2023-03-08T07:38:38;0.80;99.90
3051;DHT22;1535;51.098;6.414;2023-03-08T07:41:05;0.80;99.90
3051;DHT22;1535;51.098;6.414;2023-03-08T07:43:33;0.90;99.90
3051;DHT22;1535;51.098;6.414;2023-03-08T07:46:00;0.90;99.90
3051;DHT22;1535;51.098;6.414;2023-03-08T07:48:27;0.80;99.90
3051;DHT22;1535;51.098;6.414;2023-03-08T07:50:59;0.90;99.90
3051;DHT22;1535;51.098;6.414;2023-03-08T07:53:28;0.80;99.90
3051;DHT22;1535;51.098;6.414;2023-03-08T07:55:56;0.90;99.90
3051;DHT22;1535;51.098;6.414;2023-03-08T07:58:23;0.90;99.90
3051;DHT22;1535;51.098;6.414;2023-03-08T08:00:50;1.00;99.90
3051;DHT22;1535;51.098;6.414;2023-03-08T08:03:16;0.90;99.90
3051;DHT22;1535;51.098;6.414;2023-03-08T08:05:43;1.00;99.90
3051;DHT22;1535;51.098;6.414;2023-03-08T08:08:11;1.00;99.90
3051;DHT22;1535;51.098;6.414;2023-03-08T08:10:38;1.00;99.90
3051;DHT22;1535;51.098;6.414;2023-03-08T08:13:06;0.90;99.90
3051;DHT22;1535;51.098;6.414;2023-03-08T08:15:32;0.90;99.90
3051;DHT22;1535;51.098;6.414;2023-03-08T08:17:59;1.00;99.90
3051;DHT22;1535;51.098;6.414;2023-03-08T08:20:27;1.00;99.90
3051;DHT22;1535;51.098;6.414;2023-03-08T08:22:53;1.00;99.90
3051;DHT22;1535;51.098;6.414;2023-03-08T08:25:22;1.00;99.90
3051;DHT22;1535;51.098;6.414;2023-03-08T08:27:49;1.00;99.90
3051;DHT22;1535;51.098;6.414;2023-03-08T08:30:17;0.90;99.90
3051;DHT22;1535;51.098;6.414;2023-03-08T08:32:44;1.00;99.90
3051;DHT22;1535;51.098;6.414;2023-03-08T08:35:11;1.00;99.90
3051;DHT22;1535;51.098;6.414;2023-03-08T08:37:37;1.10;99.90
3051;DHT22;1535;51.098;6.414;2023-03-08T08:40:05;1.00;99.90
3051;DHT22;1535;51.098;6.414;2023-03-08T08:42:36;1.10;99.90
3051;DHT22;1535;51.098;6.414;2023-03-08T08:45:04;1.00;99.90
3051;DHT22;1535;51.098;6.414;2023-03-08T08:47:31;1.00;99.90
3051;DHT22;1535;51.098;6.414;2023-03-08T08:49:58;1.10;99.90
3051;DHT22;1535;51.098;6.414;2023-03-08T08:52:25;1.20;99.90
3051;DHT22;1535;51.098;6.414;2023-03-08T08:54:51;1.30;99.90
3051;DHT22;1535;51.098;6.414;2023-03-08T08:57:18;1.40;99.90
3051;DHT22;1535;51.098;6.414;2023-03-08T08:59:47;1.20;99.90
3051;DHT22;1535;51.098;6.414;2023-03-08T09:02:13;1.10;99.90
3051;DHT22;1535;51.098;6.414;2023-03-08T09:04:40;1.10;99.90
3051;DHT22;1535;51.098;6.414;2023-03-08T09:07:07;1.10;99.90
3051;DHT22;1535;51.098;6.414;2023-03-08T09:09:34;1.20;99.90
3051;DHT22;1535;51.098;6.414;2023-03-08T09:12:01;1.30;99.90
3051;DHT22;1535;51.098;6.414;2023-03-08T09:14:28;1.30;99.90
3051;DHT22;1535;51.098;6.414;2023-03-08T09:16:56;1.20;99.90
3051;DHT22;1535;51.098;6.414;2023-03-08T09:19:22;1.10;99.90
3051;DHT22;1535;51.098;6.414;2023-03-08T09:21:49;1.30;99.90
3051;DHT22;1535;51.098;6.414;2023-03-08T09:24:16;1.30;99.90
3051;DHT22;1535;51.098;6.414;2023-03-08T09:26:42;1.40;99.90
3051;DHT22;1535;51.098;6.414;2023-03-08T09:29:09;1.40;99.90
3051;DHT22;1535;51.098;6.414;2023-03-08T09:31:38;1.30;99.90
3051;DHT22;1535;51.098;6.414;2023-03-08T09:34:10;1.50;99.90
3051;DHT22;1535;51.098;6.414;2023-03-08T09:36:40;1.40;99.90
3051;DHT22;1535;51.098;6.414;2023-03-08T09:39:10;1.40;99.90
3051;DHT22;1535;51.098;6.414;2023-03-08T09:41:52;1.50;99.90
3051;DHT22;1535;51.098;6.414;2023-03-08T09:44:38;1.40;99.90
3051;DHT22;1535;51.098;6.414;2023-03-08T09:47:14;1.30;99.90
3051;DHT22;1535;51.098;6.414;2023-03-08T09:49:46;1.30;99.90
3051;DHT22;1535;51.098;6.414;2023-03-08T09:52:19;1.20;99.90
3051;DHT22;1535;51.098;6.414;2023-03-08T09:54:49;1.40;99.90
3051;DHT22;1535;51.098;6.414;2023-03-08T09:57:20;1.40;99.90
3051;DHT22;1535;51.098;6.414;2023-03-08T09:59:53;1.50;99.90
3051;DHT22;1535;51.098;6.414;2023-03-08T10:02:28;1.50;99.90
3051;DHT22;1535;51.098;6.414;2023-03-08T10:05:03;1.40;99.90
3051;DHT22;1535;51.098;6.414;2023-03-08T10:07:37;1.50;99.90
3051;DHT22;1535;51.098;6.414;2023-03-08T10:10:18;1.70;99.90
3051;DHT22;1535;51.098;6.414;2023-03-08T10:12:58;1.60;99.90
3051;DHT22;1535;51.098;6.414;2023-03-08T10:15:30;1.60;99.90
3051;DHT22;1535;51.098;6.414;2023-03-08T10:17:59;1.80;99.90
3051;DHT22;1535;51.098;6.414;2023-03-08T10:20:31;1.70;99.90
3051;DHT22;1535;51.098;6.414;2023-03-08T10:23:01;1.90;99.90
3051;DHT22;1535;51.098;6.414;2023-03-08T10:25:33;1.70;99.90
3051;DHT22;1535;51.098;6.414;2023-03-08T10:28:01;1.80;99.90
3051;DHT22;1535;51.098;6.414;2023-03-08T10:30:32;2.00;99.90
3051;DHT22;1535;51.098;6.414;2023-03-08T10:33:02;2.10;99.90
3051;DHT22;1535;51.098;6.414;2023-03-08T10:35:34;2.20;99.90
3051;DHT22;1535;51.098;6.414;2023-03-08T10:38:02;2.30;99.90
3051;DHT22;1535;51.098;6.414;2023-03-08T10:40:29;2.50;99.90
3051;DHT22;1535;51.098;6.414;2023-03-08T10:42:59;2.60;99.90
3051;DHT22;1535;51.098;6.414;2023-03-08T10:45:27;2.50;99.90
3051;DHT22;1535;51.098;6.414;2023-03-08T10:47:57;2.40;99.90
3051;DHT22;1535;51.098;6.414;2023-03-08T10:50:26;2.60;99.90
3051;DHT22;1535;51.098;6.414;2023-03-08T10:53:05;2.80;99.90
3051;DHT22;1535;51.098;6.414;2023-03-08T10:55:41;2.90;99.90
3051;DHT22;1535;51.098;6.414;2023-03-08T10:58:31;3.20;99.90
3051;DHT22;1535;51.098;6.414;2023-03-08T11:01:01;3.60;99.90
3051;DHT22;1535;51.098;6.414;2023-03-08T11:03:28;3.80;99.90
3051;DHT22;1535;51.098;6.414;2023-03-08T11:05:58;3.70;99.90
3051;DHT22;1535;51.098;6.414;2023-03-08T11:08:28;4.00;99.90
3051;DHT22;1535;51.098;6.414;2023-03-08T11:11:07;4.00;99.90
3051;DHT22;1535;51.098;6.414;2023-03-08T11:13:37;4.20;99.90
3051;DHT22;1535;51.098;6.414;2023-03-08T11:16:47;4.40;99.90
3051;DHT22;1535;51.098;6.414;2023-03-08T11:22:45;3.90;99.90
3051;DHT22;1535;51.098;6.414;2023-03-08T11:25:25;3.70;99.90
3051;DHT22;1535;51.098;6.414;2023-03-08T11:31:06;3.60;99.90
3051;DHT22;1535;51.098;6.414;2023-03-08T11:33:51;3.50;99.90
3051;DHT22;1535;51.098;6.414;2023-03-08T11:36:23;3.50;99.90
3051;DHT22;1535;51.098;6.414;2023-03-08T11:38:57;3.40;99.90
3051;DHT22;1535;51.098;6.414;2023-03-08T11:41:31;3.30;99.90
3051;DHT22;1535;51.098;6.414;2023-03-08T11:44:22;3.10;99.90
3051;DHT22;1535;51.098;6.414;2023-03-08T11:47:06;3.10;99.90
3051;DHT22;1535;51.098;6.414;2023-03-08T11:49:50;3.40;99.90
3051;DHT22;1535;51.098;6.414;2023-03-08T11:52:27;3.50;99.90
3051;DHT22;1535;51.098;6.414;2023-03-08T11:55:09;3.60;99.90
3051;DHT22;1535;51.098;6.414;2023-03-08T11:57:51;3.90;99.90
3051;DHT22;1535;51.098;6.414;2023-03-08T12:00:25;4.10;99.90
3051;DHT22;1535;51.098;6.414;2023-03-08T12:03:11;4.20;99.90
3051;DHT22;1535;51.098;6.414;2023-03-08T12:05:42;4.30;99.90
3051;DHT22;1535;51.098;6.414;2023-03-08T12:08:13;4.20;99.90
3051;DHT22;1535;51.098;6.414;2023-03-08T12:10:44;4.30;99.90
3051;DHT22;1535;51.098;6.414;2023-03-08T12:13:19;4.20;99.90
3051;DHT22;1535;51.098;6.414;2023-03-08T12:15:50;4.20;99.90
3051;DHT22;1535;51.098;6.414;2023-03-08T12:18:22;4.30;99.90
3051;DHT22;1535;51.098;6.414;2023-03-08T12:20:54;4.30;99.90
3051;DHT22;1535;51.098;6.414;2023-03-08T12:23:27;4.40;99.90
3051;DHT22;1535;51.098;6.414;2023-03-08T12:26:04;4.40;99.90
3051;DHT22;1535;51.098;6.414;2023-03-08T12:28:38;4.70;99.90
3051;DHT22;1535;51.098;6.414;2023-03-08T12:31:16;4.60;99.90
3051;DHT22;1535;51.098;6.414;2023-03-08T12:33:46;4.70;99.90
3051;DHT22;1535;51.098;6.414;2023-03-08T12:36:13;4.50;99.90
3051;DHT22;1535;51.098;6.414;2023-03-08T12:38:44;4.70;99.90
3051;DHT22;1535;51.098;6.414;2023-03-08T12:41:24;4.50;99.90
3051;DHT22;1535;51.098;6.414;2023-03-08T12:44:01;4.30;99.90
3051;DHT22;1535;51.098;6.414;2023-03-08T12:46:44;4.20;99.90
3051;DHT22;1535;51.098;6.414;2023-03-08T12:49:18;4.30;99.90
3051;DHT22;1535;51.098;6.414;2023-03-08T12:51:55;4.20;99.90
3051;DHT22;1535;51.098;6.414;2023-03-08T12:54:23;4.20;99.90
3051;DHT22;1535;51.098;6.414;2023-03-08T12:56:51;4.10;99.90
3051;DHT22;1535;51.098;6.414;2023-03-08T12:59:30;4.20;99.90
3051;DHT22;1535;51.098;6.414;2023-03-08T13:02:00;4.30;99.90
3051;DHT22;1535;51.098;6.414;2023-03-08T13:04:30;4.30;99.90
3051;DHT22;1535;51.098;6.414;2023-03-08T13:07:19;4.50;99.90
3051;DHT22;1535;51.098;6.414;2023-03-08T13:09:53;4.50;99.90
3051;DHT22;1535;51.098;6.414;2023-03-08T13:12:31;4.30;99.90
3051;DHT22;1535;51.098;6.414;2023-03-08T13:15:20;4.00;99.90
3051;DHT22;1535;51.098;6.414;2023-03-08T13:17:50;3.90;99.90
3051;DHT22;1535;51.098;6.414;2023-03-08T13:20:19;4.00;99.90
3051;DHT22;1535;51.098;6.414;2023-03-08T13:22:59;3.90;99.90
3051;DHT22;1535;51.098;6.414;2023-03-08T13:25:41;3.80;99.90
3051;DHT22;1535;51.098;6.414;2023-03-08T13:28:11;4.00;99.90
3051;DHT22;1535;51.098;6.414;2023-03-08T13:30:43;3.90;99.90
3051;DHT22;1535;51.098;6.414;2023-03-08T13:33:13;3.90;99.90
3051;DHT22;1535;51.098;6.414;2023-03-08T13:35:41;4.00;99.90
3051;DHT22;1535;51.098;6.414;2023-03-08T13:38:20;4.00;99.90
3051;DHT22;1535;51.098;6.414;2023-03-08T13:40:50;4.10;99.90
3051;DHT22;1535;51.098;6.414;2023-03-08T13:43:16;4.00;99.90
3051;DHT22;1535;51.098;6.414;2023-03-08T13:45:47;3.90;99.90
3051;DHT22;1535;51.098;6.414;2023-03-08T13:48:14;3.90;99.90
3051;DHT22;1535;51.098;6.414;2023-03-08T13:50:42;4.10;99.90
3051;DHT22;1535;51.098;6.414;2023-03-08T13:53:14;4.00;99.90
3051;DHT22;1535;51.098;6.414;2023-03-08T13:55:45;4.10;99.90
3051;DHT22;1535;51.098;6.414;2023-03-08T13:58:20;3.90;99.90
3051;DHT22;1535;51.098;6.414;2023-03-08T14:00:59;4.00;99.90
3051;DHT22;1535;51.098;6.414;2023-03-08T14:03:27;3.90;99.90
3051;DHT22;1535;51.098;6.414;2023-03-08T14:05:55;3.90;99.90
3051;DHT22;1535;51.098;6.414;2023-03-08T14:08:23;3.70;99.90
3051;DHT22;1535;51.098;6.414;2023-03-08T14:10:53;3.50;99.90
3051;DHT22;1535;51.098;6.414;2023-03-08T14:13:25;3.60;99.90
3051;DHT22;1535;51.098;6.414;2023-03-08T14:15:55;3.50;99.90
3051;DHT22;1535;51.098;6.414;2023-03-08T14:18:27;3.30;99.90
3051;DHT22;1535;51.098;6.414;2023-03-08T14:21:12;3.30;99.90
3051;DHT22;1535;51.098;6.414;2023-03-08T14:23:41;3.30;99.90
3051;DHT22;1535;51.098;6.414;2023-03-08T14:26:29;3.30;99.90
3051;DHT22;1535;51.098;6.414;2023-03-08T14:29:15;3.30;99.90
3051;DHT22;1535;51.098;6.414;2023-03-08T14:31:57;3.20;99.90
3051;DHT22;1535;51.098;6.414;2023-03-08T14:34:27;3.10;99.90
3051;DHT22;1535;51.098;6.414;2023-03-08T14:37:00;3.00;99.90
3051;DHT22;1535;51.098;6.414;2023-03-08T14:39:29;2.90;99.90
3051;DHT22;1535;51.098;6.414;2023-03-08T14:41:57;3.00;99.90
3051;DHT22;1535;51.098;6.414;2023-03-08T14:44:34;3.10;99.90
3051;DHT22;1535;51.098;6.414;2023-03-08T14:47:18;3.10;99.90
3051;DHT22;1535;51.098;6.414;2023-03-08T14:49:56;3.10;99.90
3051;DHT22;1535;51.098;6.414;2023-03-08T14:52:27;3.00;99.90
3051;DHT22;1535;51.098;6.414;2023-03-08T14:54:53;3.00;99.90
3051;DHT22;1535;51.098;6.414;2023-03-08T14:57:22;3.10;99.90
3051;DHT22;1535;51.098;6.414;2023-03-08T14:59:50;3.10;99.90
3051;DHT22;1535;51.098;6.414;2023-03-08T15:02:18;3.20;99.90
3051;DHT22;1535;51.098;6.414;2023-03-08T15:04:45;3.10;99.90
3051;DHT22;1535;51.098;6.414;2023-03-08T15:07:17;3.30;99.90
3051;DHT22;1535;51.098;6.414;2023-03-08T15:09:45;3.10;99.90
3051;DHT22;1535;51.098;6.414;2023-03-08T15:12:12;3.00;99.90
3051;DHT22;1535;51.098;6.414;2023-03-08T15:14:39;3.10;99.90
3051;DHT22;1535;51.098;6.414;2023-03-08T15:17:06;3.20;99.90
3051;DHT22;1535;51.098;6.414;2023-03-08T15:19:32;3.20;99.90
3051;DHT22;1535;51.098;6.414;2023-03-08T15:22:00;3.20;99.90
3051;DHT22;1535;51.098;6.414;2023-03-08T15:24:29;3.30;99.90
3051;DHT22;1535;51.098;6.414;2023-03-08T15:26:56;3.40;99.90
3051;DHT22;1535;51.098;6.414;2023-03-08T15:29:25;3.50;99.90
3051;DHT22;1535;51.098;6.414;2023-03-08T15:31:52;3.50;99.90
3051;DHT22;1535;51.098;6.414;2023-03-08T15:34:19;3.40;99.90
3051;DHT22;1535;51.098;6.414;2023-03-08T15:36:46;3.40;99.90
3051;DHT22;1535;51.098;6.414;2023-03-08T15:39:13;3.40;99.90
3051;DHT22;1535;51.098;6.414;2023-03-08T15:41:41;3.50;99.90
3051;DHT22;1535;51.098;6.414;2023-03-08T15:44:08;3.40;99.90
3051;DHT22;1535;51.098;6.414;2023-03-08T15:46:36;3.30;99.90
3051;DHT22;1535;51.098;6.414;2023-03-08T15:49:04;3.40;99.90
3051;DHT22;1535;51.098;6.414;2023-03-08T15:51:33;3.50;99.90
3051;DHT22;1535;51.098;6.414;2023-03-08T15:54:00;3.60;99.90
3051;DHT22;1535;51.098;6.414;2023-03-08T15:56:27;3.50;99.90
3051;DHT22;1535;51.098;6.414;2023-03-08T15:58:57;3.50;99.90
3051;DHT22;1535;51.098;6.414;2023-03-08T16:01:25;3.50;99.90
3051;DHT22;1535;51.098;6.414;2023-03-08T16:03:53;3.50;99.90
3051;DHT22;1535;51.098;6.414;2023-03-08T16:06:22;3.30;99.90
3051;DHT22;1535;51.098;6.414;2023-03-08T16:08:49;3.30;99.90
3051;DHT22;1535;51.098;6.414;2023-03-08T16:11:18;3.20;99.90
3051;DHT22;1535;51.098;6.414;2023-03-08T16:13:47;3.20;99.90
3051;DHT22;1535;51.098;6.414;2023-03-08T16:16:17;3.10;99.90
3051;DHT22;1535;51.098;6.414;2023-03-08T16:18:45;3.20;99.90
3051;DHT22;1535;51.098;6.414;2023-03-08T16:21:12;3.00;99.90
3051;DHT22;1535;51.098;6.414;2023-03-08T16:23:39;3.00;99.90
3051;DHT22;1535;51.098;6.414;2023-03-08T16:26:08;3.00;99.90
3051;DHT22;1535;51.098;6.414;2023-03-08T16:28:35;2.90;99.90
3051;DHT22;1535;51.098;6.414;2023-03-08T16:31:02;2.90;99.90
3051;DHT22;1535;51.098;6.414;2023-03-08T16:33:31;3.00;99.90
3051;DHT22;1535;51.098;6.414;2023-03-08T16:35:58;3.00;99.90
3051;DHT22;1535;51.098;6.414;2023-03-08T16:38:25;2.90;99.90